sensor_id;sensor_type;location;lat;lon;timestamp;pressure;altitude;pressure_sealevel;temperature;humidity
58662;BME280;44432;49.786;22.760;2022-07-03T00:02:09;99861.95;;;20.12;65.47
58662;BME280;44432;49.786;22.760;2022-07-03T00:04:40;99859.13;;;20.08;65.59
58662;BME280;44432;49.786;22.760;2022-07-03T00:07:10;99855.92;;;20.09;65.72
58662;BME280;44432;49.786;22.760;2022-07-03T00:09:41;99854.92;;;20.12;65.89
58662;BME280;44432;49.786;22.760;2022-07-03T00:12:13;99850.80;;;20.14;65.93
58662;BME280;44432;49.786;22.760;2022-07-03T00:14:43;99852.89;;;20.13;65.81
58662;BME280;44432;49.786;22.760;2022-07-03T00:17:14;99850.90;;;20.11;65.82
58662;BME280;44432;49.786;22.760;2022-07-03T00:19:45;99850.63;;;20.09;65.83
58662;BME280;44432;49.786;22.760;2022-07-03T00:22:15;99847.52;;;20.10;65.97
58662;BME280;44432;49.786;22.760;2022-07-03T00:24:49;99845.74;;;20.11;65.92
58662;BME280;44432;49.786;22.760;2022-07-03T00:27:22;99844.63;;;20.12;65.90
58662;BME280;44432;49.786;22.760;2022-07-03T00:29:57;99840.83;;;20.13;65.97
58662;BME280;44432;49.786;22.760;2022-07-03T00:32:29;99842.58;;;20.10;65.77
58662;BME280;44432;49.786;22.760;2022-07-03T00:34:59;99844.52;;;20.02;65.79
58662;BME280;44432;49.786;22.760;2022-07-03T00:37:31;99839.77;;;19.94;65.90
58662;BME280;44432;49.786;22.760;2022-07-03T00:40:02;99831.50;;;19.92;66.19
58662;BME280;44432;49.786;22.760;2022-07-03T00:42:33;99829.73;;;19.94;66.32
58662;BME280;44432;49.786;22.760;2022-07-03T00:45:09;99825.77;;;19.94;66.41
58662;BME280;44432;49.786;22.760;2022-07-03T00:47:43;99826.05;;;19.96;66.32
58662;BME280;44432;49.786;22.760;2022-07-03T00:50:14;99826.81;;;19.98;66.32
58662;BME280;44432;49.786;22.760;2022-07-03T00:52:47;99829.67;;;20.02;66.22
58662;BME280;44432;49.786;22.760;2022-07-03T00:55:16;99828.50;;;20.03;66.28
58662;BME280;44432;49.786;22.760;2022-07-03T00:57:48;99828.73;;;20.04;66.27
58662;BME280;44432;49.786;22.760;2022-07-03T01:00:19;99825.70;;;20.02;66.11
58662;BME280;44432;49.786;22.760;2022-07-03T01:02:53;99819.28;;;19.94;66.01
58662;BME280;44432;49.786;22.760;2022-07-03T01:05:32;99818.63;;;19.92;66.35
58662;BME280;44432;49.786;22.760;2022-07-03T01:08:11;99818.62;;;19.89;66.24
58662;BME280;44432;49.786;22.760;2022-07-03T01:10:49;99824.31;;;19.82;66.27
58662;BME280;44432;49.786;22.760;2022-07-03T01:13:36;99821.89;;;19.75;66.42
58662;BME280;44432;49.786;22.760;2022-07-03T01:16:07;99821.52;;;19.74;66.74
58662;BME280;44432;49.786;22.760;2022-07-03T01:18:45;99820.83;;;19.74;66.85
58662;BME280;44432;49.786;22.760;2022-07-03T01:21:26;99822.95;;;19.72;66.89
58662;BME280;44432;49.786;22.760;2022-07-03T01:27:03;99819.80;;;19.75;67.03
58662;BME280;44432;49.786;22.760;2022-07-03T01:29:41;99821.67;;;19.79;67.00
58662;BME280;44432;49.786;22.760;2022-07-03T01:32:16;99821.16;;;19.82;66.86
58662;BME280;44432;49.786;22.760;2022-07-03T01:34:51;99821.19;;;19.78;66.85
58662;BME280;44432;49.786;22.760;2022-07-03T01:37:25;99824.56;;;19.72;66.93
58662;BME280;44432;49.786;22.760;2022-07-03T01:39:59;99829.26;;;19.70;67.08
58662;BME280;44432;49.786;22.760;2022-07-03T01:42:34;99825.52;;;19.71;67.16
58662;BME280;44432;49.786;22.760;2022-07-03T01:45:10;99823.13;;;19.73;67.20
58662;BME280;44432;49.786;22.760;2022-07-03T01:47:42;99818.75;;;19.68;67.11
58662;BME280;44432;49.786;22.760;2022-07-03T01:50:16;99814.65;;;19.64;67.27
58662;BME280;44432;49.786;22.760;2022-07-03T01:52:49;99814.79;;;19.60;67.34
58662;BME280;44432;49.786;22.760;2022-07-03T01:55:22;99811.88;;;19.58;67.46
58662;BME280;44432;49.786;22.760;2022-07-03T01:57:53;99813.66;;;19.61;67.53
58662;BME280;44432;49.786;22.760;2022-07-03T02:00:24;99809.25;;;19.65;67.53
58662;BME280;44432;49.786;22.760;2022-07-03T02:02:59;99805.58;;;19.70;67.57
58662;BME280;44432;49.786;22.760;2022-07-03T02:05:35;99805.60;;;19.73;67.50
58662;BME280;44432;49.786;22.760;2022-07-03T02:08:15;99807.38;;;19.75;67.41
58662;BME280;44432;49.786;22.760;2022-07-03T02:11:07;99810.54;;;19.76;67.43
58662;BME280;44432;49.786;22.760;2022-07-03T02:13:50;99813.42;;;19.75;67.36
58662;BME280;44432;49.786;22.760;2022-07-03T02:16:24;99810.95;;;19.72;67.33
58662;BME280;44432;49.786;22.760;2022-07-03T02:19:04;99807.09;;;19.73;67.28
58662;BME280;44432;49.786;22.760;2022-07-03T02:21:35;99802.71;;;19.75;67.30
58662;BME280;44432;49.786;22.760;2022-07-03T02:24:19;99800.98;;;19.74;67.28
58662;BME280;44432;49.786;22.760;2022-07-03T02:26:56;99801.34;;;19.68;67.24
58662;BME280;44432;49.786;22.760;2022-07-03T02:29:33;99801.64;;;19.66;67.40
58662;BME280;44432;49.786;22.760;2022-07-03T02:32:10;99800.62;;;19.65;67.64
58662;BME280;44432;49.786;22.760;2022-07-03T02:34:45;99799.91;;;19.64;67.45
58662;BME280;44432;49.786;22.760;2022-07-03T02:37:18;99802.65;;;19.64;67.58
58662;BME280;44432;49.786;22.760;2022-07-03T02:39:53;99806.34;;;19.64;67.73
58662;BME280;44432;49.786;22.760;2022-07-03T02:42:30;99804.09;;;19.64;67.60
58662;BME280;44432;49.786;22.760;2022-07-03T02:45:05;99798.86;;;19.59;67.62
58662;BME280;44432;49.786;22.760;2022-07-03T02:47:45;99802.85;;;19.54;67.51
58662;BME280;44432;49.786;22.760;2022-07-03T02:50:21;99803.56;;;19.45;67.58
58662;BME280;44432;49.786;22.760;2022-07-03T02:53:01;99805.67;;;19.40;67.79
58662;BME280;44432;49.786;22.760;2022-07-03T02:55:44;99814.38;;;19.37;68.00
58662;BME280;44432;49.786;22.760;2022-07-03T03:01:06;99810.32;;;19.39;68.27
58662;BME280;44432;49.786;22.760;2022-07-03T03:03:41;99807.71;;;19.41;68.33
58662;BME280;44432;49.786;22.760;2022-07-03T03:06:17;99813.00;;;19.46;68.28
58662;BME280;44432;49.786;22.760;2022-07-03T03:08:51;99809.58;;;19.51;68.28
58662;BME280;44432;49.786;22.760;2022-07-03T03:11:28;99807.09;;;19.55;68.28
58662;BME280;44432;49.786;22.760;2022-07-03T03:14:01;99809.84;;;19.57;68.18
58662;BME280;44432;49.786;22.760;2022-07-03T03:16:37;99808.79;;;19.60;68.17
58662;BME280;44432;49.786;22.760;2022-07-03T03:19:13;99806.86;;;19.62;68.12
58662;BME280;44432;49.786;22.760;2022-07-03T03:21:56;99806.01;;;19.62;67.99
58662;BME280;44432;49.786;22.760;2022-07-03T03:24:28;99802.86;;;19.56;67.76
58662;BME280;44432;49.786;22.760;2022-07-03T03:26:59;99803.70;;;19.53;67.91
58662;BME280;44432;49.786;22.760;2022-07-03T03:29:30;99807.95;;;19.51;67.94
58662;BME280;44432;49.786;22.760;2022-07-03T03:32:01;99805.36;;;19.51;68.09
58662;BME280;44432;49.786;22.760;2022-07-03T03:34:34;99804.13;;;19.52;68.08
58662;BME280;44432;49.786;22.760;2022-07-03T03:37:05;99801.62;;;19.50;68.16
58662;BME280;44432;49.786;22.760;2022-07-03T03:39:35;99803.44;;;19.50;68.22
58662;BME280;44432;49.786;22.760;2022-07-03T03:42:07;99801.46;;;19.50;68.19
58662;BME280;44432;49.786;22.760;2022-07-03T03:44:38;99803.93;;;19.53;68.15
58662;BME280;44432;49.786;22.760;2022-07-03T03:47:08;99802.45;;;19.58;68.25
58662;BME280;44432;49.786;22.760;2022-07-03T03:49:39;99803.77;;;19.64;68.21
58662;BME280;44432;49.786;22.760;2022-07-03T03:52:10;99809.48;;;19.70;68.22
58662;BME280;44432;49.786;22.760;2022-07-03T03:54:40;99810.38;;;19.74;67.94
58662;BME280;44432;49.786;22.760;2022-07-03T03:57:19;99805.38;;;19.71;67.72
58662;BME280;44432;49.786;22.760;2022-07-03T03:59:50;99800.42;;;19.70;67.76
58662;BME280;44432;49.786;22.760;2022-07-03T04:02:21;99800.19;;;19.73;67.82
58662;BME280;44432;49.786;22.760;2022-07-03T04:04:52;99804.95;;;19.76;67.74
58662;BME280;44432;49.786;22.760;2022-07-03T04:07:23;99805.02;;;19.75;67.69
58662;BME280;44432;49.786;22.760;2022-07-03T04:09:53;99805.97;;;19.71;67.74
58662;BME280;44432;49.786;22.760;2022-07-03T04:12:24;99804.80;;;19.74;67.88
58662;BME280;44432;49.786;22.760;2022-07-03T04:14:55;99807.46;;;19.78;67.88
58662;BME280;44432;49.786;22.760;2022-07-03T04:17:27;99809.30;;;19.81;67.78
58662;BME280;44432;49.786;22.760;2022-07-03T04:19:58;99813.02;;;19.82;67.71
58662;BME280;44432;49.786;22.760;2022-07-03T04:22:28;99809.91;;;19.84;67.68
58662;BME280;44432;49.786;22.760;2022-07-03T04:24:59;99807.98;;;19.87;67.68
58662;BME280;44432;49.786;22.760;2022-07-03T04:27:29;99805.23;;;19.92;67.72
58662;BME280;44432;49.786;22.760;2022-07-03T04:30:02;99807.39;;;19.94;67.51
58662;BME280;44432;49.786;22.760;2022-07-03T04:32:32;99809.11;;;19.95;67.40
58662;BME280;44432;49.786;22.760;2022-07-03T04:35:03;99809.05;;;19.95;67.36
58662;BME280;44432;49.786;22.760;2022-07-03T04:37:34;99804.52;;;19.90;67.13
58662;BME280;44432;49.786;22.760;2022-07-03T04:40:07;99800.80;;;19.82;67.15
58662;BME280;44432;49.786;22.760;2022-07-03T04:42:36;99796.81;;;19.79;67.44
58662;BME280;44432;49.786;22.760;2022-07-03T04:45:08;99798.85;;;19.80;67.65
58662;BME280;44432;49.786;22.760;2022-07-03T04:47:39;99798.04;;;19.88;67.86
58662;BME280;44432;49.786;22.760;2022-07-03T04:50:10;99793.05;;;19.98;67.52
58662;BME280;44432;49.786;22.760;2022-07-03T04:52:41;99794.00;;;19.96;67.17
58662;BME280;44432;49.786;22.760;2022-07-03T04:55:11;99791.83;;;19.89;67.13
58662;BME280;44432;49.786;22.760;2022-07-03T04:57:42;99791.70;;;19.84;67.44
58662;BME280;44432;49.786;22.760;2022-07-03T05:00:13;99789.78;;;19.88;67.64
58662;BME280;44432;49.786;22.760;2022-07-03T05:02:44;99793.63;;;19.95;67.74
58662;BME280;44432;49.786;22.760;2022-07-03T05:05:14;99790.08;;;20.06;67.65
58662;BME280;44432;49.786;22.760;2022-07-03T05:07:45;99784.34;;;20.19;67.59
58662;BME280;44432;49.786;22.760;2022-07-03T05:10:15;99783.39;;;20.27;67.08
58662;BME280;44432;49.786;22.760;2022-07-03T05:12:46;99783.41;;;20.31;66.91
58662;BME280;44432;49.786;22.760;2022-07-03T05:15:17;99780.62;;;20.42;67.20
58662;BME280;44432;49.786;22.760;2022-07-03T05:17:47;99781.79;;;20.54;67.00
58662;BME280;44432;49.786;22.760;2022-07-03T05:20:18;99786.52;;;20.66;66.78
58662;BME280;44432;49.786;22.760;2022-07-03T05:22:59;99781.43;;;20.72;66.28
58662;BME280;44432;49.786;22.760;2022-07-03T05:25:29;99785.69;;;20.75;65.96
58662;BME280;44432;49.786;22.760;2022-07-03T05:28:01;99789.01;;;20.70;65.72
58662;BME280;44432;49.786;22.760;2022-07-03T05:30:32;99790.30;;;20.73;65.98
58662;BME280;44432;49.786;22.760;2022-07-03T05:33:02;99790.02;;;20.82;66.13
58662;BME280;44432;49.786;22.760;2022-07-03T05:35:33;99790.87;;;20.95;66.06
58662;BME280;44432;49.786;22.760;2022-07-03T05:38:04;99786.20;;;21.09;65.68
58662;BME280;44432;49.786;22.760;2022-07-03T05:40:34;99788.09;;;21.19;65.49
58662;BME280;44432;49.786;22.760;2022-07-03T05:43:05;99788.10;;;21.30;65.10
58662;BME280;44432;49.786;22.760;2022-07-03T05:45:36;99783.84;;;21.40;64.95
58662;BME280;44432;49.786;22.760;2022-07-03T05:48:07;99785.98;;;21.52;64.65
58662;BME280;44432;49.786;22.760;2022-07-03T05:50:37;99785.65;;;21.57;63.97
58662;BME280;44432;49.786;22.760;2022-07-03T05:53:08;99782.73;;;21.65;64.09
58662;BME280;44432;49.786;22.760;2022-07-03T05:55:39;99783.04;;;21.81;64.02
58662;BME280;44432;49.786;22.760;2022-07-03T05:58:10;99782.66;;;21.95;63.74
58662;BME280;44432;49.786;22.760;2022-07-03T06:00:40;99783.92;;;22.05;63.25
58662;BME280;44432;49.786;22.760;2022-07-03T06:03:11;99780.87;;;22.17;62.96
58662;BME280;44432;49.786;22.760;2022-07-03T06:05:41;99786.56;;;22.31;62.58
58662;BME280;44432;49.786;22.760;2022-07-03T06:08:12;99778.27;;;22.43;62.19
58662;BME280;44432;49.786;22.760;2022-07-03T06:10:42;99781.23;;;22.58;62.06
58662;BME280;44432;49.786;22.760;2022-07-03T06:13:13;99784.38;;;22.70;61.89
58662;BME280;44432;49.786;22.760;2022-07-03T06:15:44;99784.77;;;22.81;61.55
58662;BME280;44432;49.786;22.760;2022-07-03T06:18:14;99786.26;;;22.94;61.31
58662;BME280;44432;49.786;22.760;2022-07-03T06:20:45;99784.89;;;23.04;60.99
58662;BME280;44432;49.786;22.760;2022-07-03T06:23:16;99786.97;;;23.13;60.55
58662;BME280;44432;49.786;22.760;2022-07-03T06:25:46;99785.87;;;23.22;60.34
58662;BME280;44432;49.786;22.760;2022-07-03T06:28:17;99789.94;;;23.30;60.03
58662;BME280;44432;49.786;22.760;2022-07-03T06:30:48;99789.77;;;23.37;59.85
58662;BME280;44432;49.786;22.760;2022-07-03T06:33:18;99791.63;;;23.46;59.42
58662;BME280;44432;49.786;22.760;2022-07-03T06:35:49;99793.66;;;23.46;59.00
58662;BME280;44432;49.786;22.760;2022-07-03T06:38:20;99791.38;;;23.49;58.90
58662;BME280;44432;49.786;22.760;2022-07-03T06:40:51;99795.69;;;23.57;58.89
58662;BME280;44432;49.786;22.760;2022-07-03T06:43:21;99790.41;;;23.67;58.70
58662;BME280;44432;49.786;22.760;2022-07-03T06:45:52;99785.63;;;23.71;58.00
58662;BME280;44432;49.786;22.760;2022-07-03T06:48:22;99782.91;;;23.72;57.75
58662;BME280;44432;49.786;22.760;2022-07-03T06:50:53;99786.23;;;23.75;57.54
58662;BME280;44432;49.786;22.760;2022-07-03T06:53:24;99778.65;;;23.73;56.93
58662;BME280;44432;49.786;22.760;2022-07-03T06:55:54;99779.45;;;23.69;56.79
58662;BME280;44432;49.786;22.760;2022-07-03T06:58:25;99778.64;;;23.78;57.03
58662;BME280;44432;49.786;22.760;2022-07-03T07:00:55;99777.52;;;23.87;56.29
58662;BME280;44432;49.786;22.760;2022-07-03T07:03:26;99775.30;;;23.94;55.96
58662;BME280;44432;49.786;22.760;2022-07-03T07:05:56;99776.20;;;24.00;55.97
58662;BME280;44432;49.786;22.760;2022-07-03T07:08:27;99773.27;;;24.09;55.76
58662;BME280;44432;49.786;22.760;2022-07-03T07:10:58;99768.09;;;24.13;55.50
58662;BME280;44432;49.786;22.760;2022-07-03T07:13:29;99764.08;;;24.25;55.68
58662;BME280;44432;49.786;22.760;2022-07-03T07:16:00;99758.95;;;24.33;55.26
58662;BME280;44432;49.786;22.760;2022-07-03T07:18:31;99749.56;;;24.37;54.53
58662;BME280;44432;49.786;22.760;2022-07-03T07:21:02;99746.09;;;24.31;53.54
58662;BME280;44432;49.786;22.760;2022-07-03T07:23:32;99738.89;;;24.22;53.05
58662;BME280;44432;49.786;22.760;2022-07-03T07:26:03;99737.56;;;24.17;53.08
58662;BME280;44432;49.786;22.760;2022-07-03T07:28:35;99731.42;;;24.25;54.07
58662;BME280;44432;49.786;22.760;2022-07-03T07:31:06;99730.96;;;24.54;54.13
58662;BME280;44432;49.786;22.760;2022-07-03T07:33:36;99723.80;;;24.69;53.60
58662;BME280;44432;49.786;22.760;2022-07-03T07:36:07;99724.92;;;24.90;53.29
58662;BME280;44432;49.786;22.760;2022-07-03T07:38:38;99726.58;;;25.07;52.33
58662;BME280;44432;49.786;22.760;2022-07-03T07:41:08;99727.40;;;25.06;50.96
58662;BME280;44432;49.786;22.760;2022-07-03T07:43:39;99730.84;;;25.02;50.30
58662;BME280;44432;49.786;22.760;2022-07-03T07:46:09;99726.84;;;24.92;49.19
58662;BME280;44432;49.786;22.760;2022-07-03T07:48:40;99727.39;;;24.82;48.96
58662;BME280;44432;49.786;22.760;2022-07-03T07:51:11;99726.95;;;24.75;48.69
58662;BME280;44432;49.786;22.760;2022-07-03T07:53:41;99723.89;;;24.78;49.08
58662;BME280;44432;49.786;22.760;2022-07-03T07:56:12;99723.40;;;24.97;49.50
58662;BME280;44432;49.786;22.760;2022-07-03T07:58:43;99720.61;;;25.26;49.52
58662;BME280;44432;49.786;22.760;2022-07-03T08:01:13;99712.28;;;25.55;48.70
58662;BME280;44432;49.786;22.760;2022-07-03T08:04:02;99715.20;;;25.81;47.78
58662;BME280;44432;49.786;22.760;2022-07-03T08:06:50;99717.94;;;25.97;46.79
58662;BME280;44432;49.786;22.760;2022-07-03T08:09:21;99710.73;;;26.11;46.61
58662;BME280;44432;49.786;22.760;2022-07-03T08:11:52;99709.50;;;26.28;46.37
58662;BME280;44432;49.786;22.760;2022-07-03T08:14:22;99704.48;;;26.40;45.38
58662;BME280;44432;49.786;22.760;2022-07-03T08:16:53;99705.60;;;26.27;45.11
58662;BME280;44432;49.786;22.760;2022-07-03T08:19:24;99705.22;;;26.30;45.24
58662;BME280;44432;49.786;22.760;2022-07-03T08:21:54;99701.96;;;26.39;45.38
58662;BME280;44432;49.786;22.760;2022-07-03T08:24:25;99701.91;;;26.45;45.23
58662;BME280;44432;49.786;22.760;2022-07-03T08:26:56;99705.59;;;26.59;45.31
58662;BME280;44432;49.786;22.760;2022-07-03T08:29:27;99709.09;;;26.78;44.84
58662;BME280;44432;49.786;22.760;2022-07-03T08:31:58;99705.63;;;26.97;44.81
58662;BME280;44432;49.786;22.760;2022-07-03T08:34:28;99712.80;;;27.27;44.52
58662;BME280;44432;49.786;22.760;2022-07-03T08:36:59;99714.08;;;27.50;43.67
58662;BME280;44432;49.786;22.760;2022-07-03T08:39:30;99708.41;;;27.65;43.11
58662;BME280;44432;49.786;22.760;2022-07-03T08:42:00;99703.84;;;27.73;42.82
58662;BME280;44432;49.786;22.760;2022-07-03T08:44:32;99703.70;;;27.85;42.49
58662;BME280;44432;49.786;22.760;2022-07-03T08:47:08;99702.35;;;27.92;42.24
58662;BME280;44432;49.786;22.760;2022-07-03T08:49:43;99705.14;;;28.03;41.69
58662;BME280;44432;49.786;22.760;2022-07-03T08:52:14;99699.99;;;27.80;40.99
58662;BME280;44432;49.786;22.760;2022-07-03T08:54:45;99699.61;;;27.80;41.75
58662;BME280;44432;49.786;22.760;2022-07-03T08:57:16;99696.10;;;28.00;41.68
58662;BME280;44432;49.786;22.760;2022-07-03T08:59:50;99691.27;;;28.13;41.29
58662;BME280;44432;49.786;22.760;2022-07-03T09:02:22;99686.15;;;28.34;41.26
58662;BME280;44432;49.786;22.760;2022-07-03T09:04:54;99691.98;;;28.62;41.47
58662;BME280;44432;49.786;22.760;2022-07-03T09:07:27;99690.89;;;28.85;40.96
58662;BME280;44432;49.786;22.760;2022-07-03T09:09:58;99692.27;;;29.07;40.22
58662;BME280;44432;49.786;22.760;2022-07-03T09:12:31;99692.10;;;29.22;39.70
58662;BME280;44432;49.786;22.760;2022-07-03T09:15:03;99691.09;;;29.27;39.40
58662;BME280;44432;49.786;22.760;2022-07-03T09:17:33;99688.87;;;29.36;39.18
58662;BME280;44432;49.786;22.760;2022-07-03T09:20:05;99681.43;;;29.42;39.27
58662;BME280;44432;49.786;22.760;2022-07-03T09:22:37;99686.54;;;29.49;39.08
58662;BME280;44432;49.786;22.760;2022-07-03T09:25:10;99683.75;;;29.47;38.62
58662;BME280;44432;49.786;22.760;2022-07-03T09:27:53;99676.55;;;29.42;38.25
58662;BME280;44432;49.786;22.760;2022-07-03T09:30:23;99673.27;;;29.39;38.41
58662;BME280;44432;49.786;22.760;2022-07-03T09:32:56;99678.23;;;29.43;38.53
58662;BME280;44432;49.786;22.760;2022-07-03T09:35:27;99677.55;;;29.59;38.64
58662;BME280;44432;49.786;22.760;2022-07-03T09:37:59;99674.90;;;29.79;38.44
58662;BME280;44432;49.786;22.760;2022-07-03T09:40:48;99669.58;;;29.84;38.22
58662;BME280;44432;49.786;22.760;2022-07-03T09:43:25;99672.23;;;29.90;38.08
58662;BME280;44432;49.786;22.760;2022-07-03T09:45:58;99670.80;;;29.96;37.98
58662;BME280;44432;49.786;22.760;2022-07-03T09:48:31;99671.31;;;29.75;37.16
58662;BME280;44432;49.786;22.760;2022-07-03T09:51:19;99672.33;;;29.67;38.07
58662;BME280;44432;49.786;22.760;2022-07-03T09:53:55;99669.73;;;29.68;37.95
58662;BME280;44432;49.786;22.760;2022-07-03T09:56:27;99665.92;;;29.70;38.10
58662;BME280;44432;49.786;22.760;2022-07-03T09:59:06;99665.52;;;29.64;37.79
58662;BME280;44432;49.786;22.760;2022-07-03T10:01:39;99669.78;;;29.50;37.73
58662;BME280;44432;49.786;22.760;2022-07-03T10:04:18;99670.85;;;29.17;38.26
58662;BME280;44432;49.786;22.760;2022-07-03T10:06:54;99670.92;;;28.90;38.18
58662;BME280;44432;49.786;22.760;2022-07-03T10:09:27;99669.89;;;28.57;38.71
58662;BME280;44432;49.786;22.760;2022-07-03T10:11:59;99660.17;;;28.30;39.42
58662;BME280;44432;49.786;22.760;2022-07-03T10:14:29;99664.47;;;28.09;39.51
58662;BME280;44432;49.786;22.760;2022-07-03T10:17:00;99663.70;;;27.87;40.00
58662;BME280;44432;49.786;22.760;2022-07-03T10:19:42;99663.00;;;27.78;40.61
58662;BME280;44432;49.786;22.760;2022-07-03T10:22:23;99659.23;;;27.84;40.65
58662;BME280;44432;49.786;22.760;2022-07-03T10:24:56;99654.06;;;27.89;40.63
58662;BME280;44432;49.786;22.760;2022-07-03T10:27:29;99652.57;;;27.94;40.74
58662;BME280;44432;49.786;22.760;2022-07-03T10:29:59;99651.46;;;27.98;40.77
58662;BME280;44432;49.786;22.760;2022-07-03T10:32:31;99649.98;;;28.03;40.63
58662;BME280;44432;49.786;22.760;2022-07-03T10:35:03;99647.23;;;28.10;40.70
58662;BME280;44432;49.786;22.760;2022-07-03T10:37:46;99643.45;;;28.18;40.61
58662;BME280;44432;49.786;22.760;2022-07-03T10:40:24;99640.65;;;28.22;40.57
58662;BME280;44432;49.786;22.760;2022-07-03T10:43:20;99639.98;;;28.30;40.68
58662;BME280;44432;49.786;22.760;2022-07-03T10:46:14;99631.58;;;28.38;40.84
58662;BME280;44432;49.786;22.760;2022-07-03T10:48:58;99627.02;;;28.45;40.71
58662;BME280;44432;49.786;22.760;2022-07-03T10:51:31;99625.33;;;28.48;40.16
58662;BME280;44432;49.786;22.760;2022-07-03T10:54:18;99622.76;;;28.37;39.86
58662;BME280;44432;49.786;22.760;2022-07-03T10:57:21;99618.63;;;28.29;40.23
58662;BME280;44432;49.786;22.760;2022-07-03T11:00:04;99614.06;;;28.37;40.55
58662;BME280;44432;49.786;22.760;2022-07-03T11:02:39;99608.38;;;28.40;40.25
58662;BME280;44432;49.786;22.760;2022-07-03T11:05:15;99613.89;;;28.51;40.14
58662;BME280;44432;49.786;22.760;2022-07-03T11:08:09;99610.34;;;28.62;40.22
58662;BME280;44432;49.786;22.760;2022-07-03T11:10:42;99605.84;;;28.79;39.79
58662;BME280;44432;49.786;22.760;2022-07-03T11:13:18;99602.31;;;28.73;39.40
58662;BME280;44432;49.786;22.760;2022-07-03T11:15:55;99598.34;;;28.65;39.68
58662;BME280;44432;49.786;22.760;2022-07-03T11:18:33;99598.88;;;28.45;39.48
58662;BME280;44432;49.786;22.760;2022-07-03T11:21:24;99596.34;;;27.98;39.55
58662;BME280;44432;49.786;22.760;2022-07-03T11:24:17;99589.52;;;27.62;40.53
58662;BME280;44432;49.786;22.760;2022-07-03T11:29:54;99583.93;;;27.45;41.12
58662;BME280;44432;49.786;22.760;2022-07-03T11:38:29;99589.43;;;27.11;42.39
58662;BME280;44432;49.786;22.760;2022-07-03T11:41:01;99591.50;;;27.23;43.09
58662;BME280;44432;49.786;22.760;2022-07-03T11:43:31;99593.75;;;27.45;42.76
58662;BME280;44432;49.786;22.760;2022-07-03T11:46:03;99584.24;;;27.59;42.27
58662;BME280;44432;49.786;22.760;2022-07-03T11:48:34;99577.64;;;27.75;42.15
58662;BME280;44432;49.786;22.760;2022-07-03T11:51:05;99576.27;;;27.89;41.85
58662;BME280;44432;49.786;22.760;2022-07-03T11:53:36;99571.02;;;28.02;41.14
58662;BME280;44432;49.786;22.760;2022-07-03T11:56:09;99570.91;;;28.13;41.24
58662;BME280;44432;49.786;22.760;2022-07-03T11:58:44;99566.70;;;28.15;40.78
58662;BME280;44432;49.786;22.760;2022-07-03T12:04:12;99558.01;;;28.10;41.10
58662;BME280;44432;49.786;22.760;2022-07-03T12:06:44;99560.52;;;28.09;41.23
58662;BME280;44432;49.786;22.760;2022-07-03T12:09:20;99560.42;;;28.02;40.89
58662;BME280;44432;49.786;22.760;2022-07-03T12:12:00;99552.90;;;27.88;40.97
58662;BME280;44432;49.786;22.760;2022-07-03T12:14:42;99547.53;;;27.91;41.20
58662;BME280;44432;49.786;22.760;2022-07-03T12:17:16;99549.59;;;28.05;41.16
58662;BME280;44432;49.786;22.760;2022-07-03T12:19:48;99551.17;;;28.13;41.02
58662;BME280;44432;49.786;22.760;2022-07-03T12:22:24;99546.55;;;28.29;41.23
58662;BME280;44432;49.786;22.760;2022-07-03T12:25:02;99546.12;;;28.45;41.13
58662;BME280;44432;49.786;22.760;2022-07-03T12:27:36;99543.62;;;28.58;41.03
58662;BME280;44432;49.786;22.760;2022-07-03T12:30:10;99538.86;;;28.64;40.85
58662;BME280;44432;49.786;22.760;2022-07-03T12:32:41;99538.02;;;28.67;40.76
58662;BME280;44432;49.786;22.760;2022-07-03T12:35:12;99535.63;;;28.75;40.93
58662;BME280;44432;49.786;22.760;2022-07-03T12:37:42;99531.51;;;28.86;40.78
58662;BME280;44432;49.786;22.760;2022-07-03T12:40:15;99534.35;;;28.88;40.43
58662;BME280;44432;49.786;22.760;2022-07-03T12:42:47;99534.72;;;28.84;40.19
58662;BME280;44432;49.786;22.760;2022-07-03T12:45:17;99537.66;;;28.80;39.89
58662;BME280;44432;49.786;22.760;2022-07-03T12:47:58;99529.39;;;28.69;40.15
58662;BME280;44432;49.786;22.760;2022-07-03T12:50:44;99531.34;;;28.61;40.29
58662;BME280;44432;49.786;22.760;2022-07-03T12:53:28;99528.44;;;28.49;40.32
58662;BME280;44432;49.786;22.760;2022-07-03T12:56:02;99527.70;;;28.41;40.43
58662;BME280;44432;49.786;22.760;2022-07-03T12:58:35;99524.13;;;28.41;40.66
58662;BME280;44432;49.786;22.760;2022-07-03T13:01:28;99523.08;;;28.49;40.72
58662;BME280;44432;49.786;22.760;2022-07-03T13:03:58;99519.98;;;28.53;40.39
58662;BME280;44432;49.786;22.760;2022-07-03T13:06:29;99515.20;;;28.59;40.48
58662;BME280;44432;49.786;22.760;2022-07-03T13:09:02;99516.92;;;28.61;40.39
58662;BME280;44432;49.786;22.760;2022-07-03T13:11:34;99514.45;;;28.52;40.26
58662;BME280;44432;49.786;22.760;2022-07-03T13:14:10;99519.46;;;28.48;40.37
58662;BME280;44432;49.786;22.760;2022-07-03T13:16:43;99509.41;;;28.34;40.32
58662;BME280;44432;49.786;22.760;2022-07-03T13:19:15;99506.08;;;28.23;40.78
58662;BME280;44432;49.786;22.760;2022-07-03T13:21:45;99508.16;;;28.24;41.27
58662;BME280;44432;49.786;22.760;2022-07-03T13:24:16;99505.63;;;28.30;41.45
58662;BME280;44432;49.786;22.760;2022-07-03T13:26:48;99501.56;;;28.31;41.41
58662;BME280;44432;49.786;22.760;2022-07-03T13:29:19;99506.91;;;28.36;41.35
58662;BME280;44432;49.786;22.760;2022-07-03T13:31:50;99504.82;;;28.41;41.44
58662;BME280;44432;49.786;22.760;2022-07-03T13:34:21;99507.98;;;28.41;40.97
58662;BME280;44432;49.786;22.760;2022-07-03T13:36:51;99505.79;;;28.30;40.91
58662;BME280;44432;49.786;22.760;2022-07-03T13:39:22;99500.86;;;28.31;41.20
58662;BME280;44432;49.786;22.760;2022-07-03T13:41:53;99504.66;;;28.41;41.15